createdAt,value
2018-07-16T00:00:24.766Z,11.40
2018-07-16T00:02:53.314Z,8.70
2018-07-16T00:05:21.865Z,8.13
2018-07-16T00:07:50.445Z,7.17
2018-07-16T00:10:19.610Z,10.60
2018-07-16T00:12:48.173Z,8.20
2018-07-16T00:15:16.396Z,7.67
2018-07-16T00:17:44.978Z,15.60
2018-07-16T00:20:13.507Z,12.13
2018-07-16T00:22:42.085Z,11.80
2018-07-16T00:25:10.607Z,7.57
2018-07-16T00:27:39.408Z,6.67
2018-07-16T00:30:08.017Z,7.17
2018-07-16T00:32:36.571Z,5.97
2018-07-16T00:35:05.146Z,5.70
2018-07-16T00:37:33.679Z,5.30
2018-07-16T00:40:02.193Z,5.40
2018-07-16T00:42:30.726Z,6.17
2018-07-16T00:44:59.293Z,5.33
2018-07-16T00:47:27.841Z,4.63
2018-07-16T00:49:56.350Z,4.63
2018-07-16T00:52:24.974Z,5.17
2018-07-16T00:54:53.517Z,5.20
2018-07-16T00:57:22.043Z,5.80
2018-07-16T00:59:50.594Z,5.23
2018-07-16T01:02:19.116Z,5.40
2018-07-16T01:04:47.663Z,5.30
2018-07-16T01:07:16.197Z,5.07
2018-07-16T01:09:44.749Z,4.80
2018-07-16T01:12:13.318Z,5.57
2018-07-16T01:14:41.902Z,5.80
2018-07-16T01:17:10.570Z,12.50
2018-07-16T01:19:39.135Z,19.53
2018-07-16T01:22:07.316Z,14.30
2018-07-16T01:24:35.937Z,10.93
2018-07-16T01:27:04.799Z,6.00
2018-07-16T01:29:33.322Z,5.60
2018-07-16T01:32:01.854Z,6.30
2018-07-16T01:34:30.422Z,7.10
2018-07-16T01:36:58.938Z,7.90
2018-07-16T01:39:27.485Z,6.90
2018-07-16T01:41:56.009Z,6.97
2018-07-16T01:44:24.555Z,7.23
2018-07-16T01:46:53.185Z,4.93
2018-07-16T01:49:21.731Z,4.87
2018-07-16T01:51:50.234Z,5.00
2018-07-16T01:54:18.783Z,5.07
2018-07-16T01:56:47.298Z,4.60
2018-07-16T01:59:15.907Z,4.97
2018-07-16T02:01:44.484Z,5.07
2018-07-16T02:04:13.026Z,5.60
2018-07-16T02:06:41.228Z,4.63
2018-07-16T02:09:09.796Z,5.37
2018-07-16T02:11:38.355Z,5.37
2018-07-16T02:14:06.994Z,5.00
2018-07-16T02:16:35.539Z,4.70
2018-07-16T02:19:04.099Z,5.70
2018-07-16T02:21:32.626Z,4.70
2018-07-16T02:24:01.188Z,6.60
2018-07-16T02:26:29.398Z,6.53
2018-07-16T02:28:57.929Z,7.40
2018-07-16T02:31:26.497Z,5.40
2018-07-16T02:33:55.054Z,5.70
2018-07-16T02:36:23.571Z,5.63
2018-07-16T02:38:52.306Z,5.83
2018-07-16T02:41:20.848Z,5.57
2018-07-16T02:43:49.398Z,6.83
2018-07-16T02:46:17.919Z,6.20
2018-07-16T02:48:46.462Z,6.57
2018-07-16T02:51:14.986Z,6.00
2018-07-16T02:53:43.541Z,6.10
2018-07-16T02:56:12.112Z,5.60
2018-07-16T02:58:40.694Z,4.80
2018-07-16T03:01:09.248Z,5.53
2018-07-16T03:03:37.754Z,5.60
2018-07-16T03:06:06.446Z,7.13
2018-07-16T03:08:34.726Z,6.13
2018-07-16T03:11:03.293Z,6.23
2018-07-16T03:13:31.809Z,5.93
2018-07-16T03:16:00.424Z,6.23
2018-07-16T03:18:28.946Z,5.90
2018-07-16T03:20:57.479Z,5.70
2018-07-16T03:23:26.011Z,7.07
2018-07-16T03:25:54.577Z,5.43
2018-07-16T03:28:23.089Z,5.43
2018-07-16T03:30:51.675Z,5.83
2018-07-16T03:33:20.197Z,6.13
2018-07-16T03:35:48.748Z,5.80
2018-07-16T03:38:17.284Z,6.23
2018-07-16T03:40:45.818Z,5.33
2018-07-16T03:43:14.345Z,6.97
2018-07-16T03:45:42.907Z,8.03
2018-07-16T03:48:11.459Z,12.80
2018-07-16T03:50:40.130Z,14.20
2018-07-16T03:53:08.649Z,11.47
2018-07-16T03:55:37.248Z,10.30
2018-07-16T03:58:06.028Z,7.07
2018-07-16T04:00:34.561Z,6.60
2018-07-16T04:03:03.077Z,7.50
2018-07-16T04:05:31.611Z,7.47
2018-07-16T04:08:00.158Z,19.20
2018-07-16T04:10:28.701Z,7.57
2018-07-16T04:12:57.395Z,25.07
2018-07-16T04:15:25.963Z,16.03
2018-07-16T04:17:54.482Z,10.20
2018-07-16T04:20:23.045Z,5.20
2018-07-16T04:22:51.585Z,3.53
2018-07-16T04:25:20.134Z,4.30
2018-07-16T04:27:48.643Z,4.20
2018-07-16T04:30:17.245Z,3.97
2018-07-16T04:32:45.752Z,3.83
2018-07-16T04:35:14.515Z,3.80
2018-07-16T04:37:43.022Z,2.93
2018-07-16T04:40:11.577Z,3.07
2018-07-16T04:42:40.122Z,3.60
2018-07-16T04:45:08.737Z,4.40
2018-07-16T04:47:37.246Z,3.30
2018-07-16T04:50:05.974Z,3.27
2018-07-16T04:52:34.895Z,3.40
2018-07-16T04:55:04.262Z,3.37
2018-07-16T04:57:32.802Z,3.83
2018-07-16T05:00:01.313Z,2.53
2018-07-16T05:02:29.907Z,2.93
2018-07-16T05:04:58.423Z,3.20
2018-07-16T05:07:27.018Z,2.67
2018-07-16T05:09:55.541Z,3.17
2018-07-16T05:12:24.272Z,3.20
2018-07-16T05:14:52.777Z,3.27
2018-07-16T05:17:21.314Z,3.43
2018-07-16T05:19:49.839Z,4.10
2018-07-16T05:22:18.398Z,3.80
2018-07-16T05:24:46.986Z,3.60
2018-07-16T05:27:15.535Z,4.40
2018-07-16T05:29:44.062Z,3.50
2018-07-16T05:32:12.800Z,4.00
2018-07-16T05:34:41.157Z,3.80
2018-07-16T05:37:09.725Z,3.80
2018-07-16T05:39:38.285Z,4.07
2018-07-16T05:42:06.907Z,4.30
2018-07-16T05:44:35.085Z,4.67
2018-07-16T05:47:03.805Z,4.20
2018-07-16T05:49:32.325Z,4.40
2018-07-16T05:52:00.944Z,4.13
2018-07-16T05:54:29.523Z,4.27
2018-07-16T05:56:58.246Z,4.00
2018-07-16T05:59:26.773Z,4.23
2018-07-16T06:01:55.319Z,4.72
2018-07-16T06:04:23.842Z,3.80
2018-07-16T06:06:52.387Z,3.50
2018-07-16T06:09:20.913Z,3.90
2018-07-16T06:11:49.547Z,3.87
2018-07-16T06:14:18.081Z,4.03
2018-07-16T06:16:46.647Z,4.20
2018-07-16T06:19:15.157Z,4.40
2018-07-16T06:21:43.743Z,3.97
2018-07-16T06:24:11.954Z,4.47
2018-07-16T06:26:40.504Z,4.17
2018-07-16T06:29:09.046Z,5.07
2018-07-16T06:31:37.601Z,4.73
2018-07-16T06:34:06.498Z,11.10
2018-07-16T06:36:35.034Z,7.37
2018-07-16T06:39:04.674Z,4.43
2018-07-16T06:41:33.606Z,4.50
2018-07-16T06:44:01.784Z,9.13
2018-07-16T06:46:30.753Z,8.20
2018-07-16T06:48:59.299Z,6.20
2018-07-16T06:51:27.859Z,4.87
2018-07-16T06:53:56.404Z,4.33
2018-07-16T06:56:24.923Z,5.40
2018-07-16T06:58:53.458Z,9.20
2018-07-16T07:01:21.969Z,8.17
2018-07-16T07:03:50.572Z,7.43
2018-07-16T07:06:19.128Z,6.10
2018-07-16T07:08:47.725Z,12.67
2018-07-16T07:11:16.255Z,6.13
2018-07-16T07:13:44.815Z,5.90
2018-07-16T07:16:13.338Z,7.93
2018-07-16T07:18:41.878Z,14.07
2018-07-16T07:21:10.419Z,11.93
2018-07-16T07:23:38.963Z,15.20
2018-07-16T07:26:07.509Z,13.97
2018-07-16T07:28:36.060Z,16.20
2018-07-16T07:31:04.615Z,16.90
2018-07-16T07:33:33.166Z,9.60
2018-07-16T07:36:01.727Z,22.97
2018-07-16T07:38:30.611Z,6.03
2018-07-16T07:40:59.118Z,6.57
2018-07-16T07:43:28.020Z,7.62
2018-07-16T07:45:56.585Z,6.20
2018-07-16T07:48:25.225Z,9.53
2018-07-16T07:50:53.756Z,7.70
2018-07-16T07:53:22.342Z,4.73
2018-07-16T07:55:50.874Z,5.63
2018-07-16T07:58:19.515Z,5.40
2018-07-16T08:00:48.051Z,5.53
2018-07-16T08:03:16.693Z,4.13
2018-07-16T08:05:50.430Z,4.83
2018-07-16T08:08:18.669Z,5.30
2018-07-16T08:10:47.254Z,9.60
2018-07-16T08:13:15.854Z,6.10
2018-07-16T08:15:44.390Z,9.57
2018-07-16T08:18:13.074Z,4.10
2018-07-16T08:20:41.591Z,4.13
2018-07-16T08:23:10.139Z,5.00
2018-07-16T08:25:38.712Z,4.40
2018-07-16T08:28:07.356Z,4.47
2018-07-16T08:30:35.893Z,7.23
2018-07-16T08:33:04.509Z,4.47
2018-07-16T08:35:33.049Z,4.77
2018-07-16T08:38:01.741Z,5.00
2018-07-16T08:40:30.385Z,4.30
2018-07-16T08:42:58.937Z,4.70
2018-07-16T08:45:27.482Z,7.60
2018-07-16T08:47:56.023Z,5.80
2018-07-16T08:50:24.607Z,3.47
2018-07-16T08:52:53.236Z,3.60
2018-07-16T08:55:21.725Z,3.13
2018-07-16T08:57:51.067Z,6.17
2018-07-16T09:00:19.590Z,3.30
2018-07-16T09:02:48.155Z,2.77
2018-07-16T09:05:16.744Z,4.27
2018-07-16T09:07:44.975Z,3.53
2018-07-16T09:10:13.518Z,3.10
2018-07-16T09:12:42.062Z,5.30
2018-07-16T09:15:10.730Z,2.70
2018-07-16T09:17:39.248Z,3.23
2018-07-16T09:20:07.999Z,3.70
2018-07-16T09:22:36.581Z,3.70
2018-07-16T09:25:06.447Z,3.10
2018-07-16T09:27:37.618Z,3.17
2018-07-16T09:30:09.886Z,3.40
2018-07-16T09:32:41.081Z,3.20
2018-07-16T09:35:10.222Z,3.43
2018-07-16T09:37:38.773Z,3.90
2018-07-16T09:40:07.370Z,4.03
2018-07-16T09:42:35.897Z,4.17
2018-07-16T09:45:04.514Z,3.33
2018-07-16T09:47:33.160Z,4.00
2018-07-16T09:50:01.689Z,4.10
2018-07-16T09:52:30.820Z,3.73
2018-07-16T09:54:59.454Z,3.63
2018-07-16T09:57:27.987Z,3.20
2018-07-16T09:59:56.544Z,3.60
2018-07-16T10:02:25.064Z,3.40
2018-07-16T10:04:53.666Z,3.50
2018-07-16T10:07:22.282Z,2.90
2018-07-16T10:09:50.834Z,2.93
2018-07-16T10:12:19.361Z,2.37
2018-07-16T10:14:47.895Z,2.50
2018-07-16T10:17:16.615Z,2.43
2018-07-16T10:19:45.191Z,2.70
2018-07-16T10:22:13.739Z,2.90
2018-07-16T10:24:42.278Z,3.07
2018-07-16T10:27:10.806Z,3.23
2018-07-16T10:29:39.349Z,2.70
2018-07-16T10:32:08.319Z,2.20
2018-07-16T10:34:36.966Z,2.50
2018-07-16T10:37:05.563Z,2.73
2018-07-16T10:39:35.035Z,2.97
2018-07-16T10:42:03.730Z,2.40
2018-07-16T10:44:32.259Z,2.70
2018-07-16T10:47:00.814Z,3.00
2018-07-16T10:49:29.331Z,2.67
2018-07-16T10:51:57.901Z,2.30
2018-07-16T10:54:26.446Z,2.30
2018-07-16T10:56:54.997Z,2.70
2018-07-16T10:59:24.010Z,3.00
2018-07-16T11:01:52.702Z,2.97
2018-07-16T11:04:21.242Z,3.00
2018-07-16T11:06:50.918Z,2.50
2018-07-16T11:09:19.489Z,2.67
2018-07-16T11:11:48.131Z,2.60
2018-07-16T11:14:17.314Z,2.00
2018-07-16T11:16:46.916Z,2.47
2018-07-16T11:19:16.147Z,2.67
2018-07-16T11:21:44.483Z,2.60
2018-07-16T11:24:13.078Z,2.33
2018-07-16T11:26:41.632Z,2.67
2018-07-16T11:29:10.146Z,2.30
2018-07-16T11:31:38.783Z,2.40
2018-07-16T11:34:07.302Z,2.17
2018-07-16T11:36:35.921Z,2.10
2018-07-16T11:39:05.704Z,2.10
2018-07-16T11:41:34.247Z,2.43
2018-07-16T11:44:02.792Z,1.80
2018-07-16T11:46:31.343Z,2.23
2018-07-16T11:48:59.875Z,2.53
2018-07-16T11:51:28.457Z,2.20
2018-07-16T11:53:57.015Z,2.10
2018-07-16T11:56:25.646Z,1.80
2018-07-16T11:58:54.180Z,1.90
2018-07-16T12:01:22.735Z,2.40
2018-07-16T12:03:51.261Z,2.30
2018-07-16T12:06:24.761Z,2.40
2018-07-16T12:08:55.199Z,2.10
2018-07-16T12:11:24.070Z,1.80
2018-07-16T12:13:52.943Z,1.87
2018-07-16T12:16:21.525Z,1.40
2018-07-16T12:18:50.028Z,1.60
2018-07-16T12:21:18.710Z,1.50
2018-07-16T12:23:48.127Z,1.60
2018-07-16T12:26:16.716Z,1.37
2018-07-16T12:28:45.262Z,1.83
2018-07-16T12:31:13.777Z,1.50
2018-07-16T12:33:42.342Z,2.00
2018-07-16T12:36:10.960Z,1.53
2018-07-16T12:38:40.090Z,1.60
2018-07-16T12:41:08.606Z,2.03
2018-07-16T12:43:37.147Z,1.60
2018-07-16T12:46:05.876Z,1.50
2018-07-16T12:48:35.347Z,1.30
2018-07-16T12:51:03.862Z,1.50
2018-07-16T12:53:32.403Z,1.80
2018-07-16T12:56:00.629Z,1.50
2018-07-16T12:58:29.161Z,1.80
2018-07-16T13:00:57.794Z,1.93
2018-07-16T13:03:26.425Z,1.70
2018-07-16T13:05:54.945Z,1.80
2018-07-16T13:08:23.512Z,2.10
2018-07-16T13:10:52.043Z,1.40
2018-07-16T13:13:20.604Z,1.97
2018-07-16T13:15:49.234Z,1.80
2018-07-16T13:18:17.857Z,1.60
2018-07-16T13:20:46.153Z,1.73
2018-07-16T13:23:14.702Z,1.90
2018-07-16T13:25:43.236Z,1.60
2018-07-16T13:28:11.777Z,1.50
2018-07-16T13:30:40.504Z,1.70
2018-07-16T13:33:09.210Z,1.70
2018-07-16T13:35:37.976Z,1.90
2018-07-16T13:38:06.580Z,1.60
2018-07-16T13:40:35.093Z,1.80
2018-07-16T13:43:03.670Z,1.73
2018-07-16T13:45:32.184Z,1.63
2018-07-16T13:48:00.730Z,1.80
2018-07-16T13:50:29.261Z,1.90
2018-07-16T13:52:57.965Z,1.63
2018-07-16T13:55:26.491Z,2.20
2018-07-16T13:57:55.055Z,1.83
2018-07-16T14:00:23.577Z,2.10
2018-07-16T14:02:52.158Z,1.77
2018-07-16T14:05:20.674Z,1.90
2018-07-16T14:07:49.322Z,1.77
2018-07-16T14:10:17.830Z,1.73
2018-07-16T14:12:46.558Z,2.00
2018-07-16T14:15:15.147Z,2.10
2018-07-16T14:17:43.688Z,2.20
2018-07-16T14:20:14.420Z,2.03
2018-07-16T14:22:43.160Z,2.00
2018-07-16T14:25:11.925Z,1.90
2018-07-16T14:27:40.561Z,1.90
2018-07-16T14:30:09.134Z,1.93
2018-07-16T14:32:37.857Z,2.00
2018-07-16T14:35:08.774Z,2.57
2018-07-16T14:37:37.297Z,2.03
2018-07-16T14:40:06.036Z,2.10
2018-07-16T14:42:34.553Z,2.40
2018-07-16T14:45:03.140Z,2.10
2018-07-16T14:47:31.716Z,2.00
2018-07-16T14:50:00.284Z,1.83
2018-07-16T14:52:28.918Z,2.00
2018-07-16T14:54:57.469Z,2.00
2018-07-16T14:57:25.993Z,1.77
2018-07-16T14:59:54.527Z,2.00
2018-07-16T15:02:23.065Z,2.17
2018-07-16T15:04:51.605Z,2.20
2018-07-16T15:07:20.658Z,2.23
2018-07-16T15:09:49.209Z,2.30
2018-07-16T15:12:17.761Z,2.03
2018-07-16T15:14:46.306Z,2.10
2018-07-16T15:17:14.951Z,1.83
2018-07-16T15:19:43.544Z,1.90
2018-07-16T15:22:12.120Z,2.00
2018-07-16T15:24:40.770Z,1.90
2018-07-16T15:27:09.329Z,2.20
2018-07-16T15:29:37.866Z,2.03
2018-07-16T15:32:06.445Z,2.23
2018-07-16T15:34:35.055Z,2.47
2018-07-16T15:37:03.572Z,2.30
2018-07-16T15:39:32.110Z,2.03
2018-07-16T15:42:00.691Z,2.30
2018-07-16T15:44:29.338Z,2.27
2018-07-16T15:46:57.876Z,2.30
2018-07-16T15:49:26.437Z,2.23
2018-07-16T15:51:54.968Z,2.57
2018-07-16T15:54:23.479Z,2.50
2018-07-16T15:56:52.043Z,2.33
2018-07-16T15:59:20.883Z,2.63
2018-07-16T16:01:49.443Z,2.80
2018-07-16T16:04:18.253Z,2.40
2018-07-16T16:06:46.793Z,2.70
2018-07-16T16:09:15.338Z,2.77
2018-07-16T16:11:43.879Z,2.73
2018-07-16T16:14:12.390Z,2.53
2018-07-16T16:16:41.030Z,3.03
2018-07-16T16:19:09.570Z,2.00
2018-07-16T16:21:38.246Z,2.77
2018-07-16T16:24:07.038Z,2.30
2018-07-16T16:26:35.589Z,2.17
2018-07-16T16:29:03.805Z,2.50
2018-07-16T16:31:32.444Z,2.20
2018-07-16T16:34:00.978Z,2.37
2018-07-16T16:36:29.727Z,2.90
2018-07-16T16:38:58.298Z,2.83
2018-07-16T16:41:26.905Z,2.57
2018-07-16T16:43:55.466Z,2.40
2018-07-16T16:46:24.119Z,2.37
2018-07-16T16:48:52.663Z,2.43
2018-07-16T16:51:21.237Z,2.90
2018-07-16T16:53:49.769Z,2.93
2018-07-16T16:56:18.530Z,2.60
2018-07-16T16:58:47.147Z,2.83
2018-07-16T17:01:15.709Z,2.57
2018-07-16T17:03:44.246Z,2.67
2018-07-16T17:06:12.831Z,2.80
2018-07-16T17:08:41.439Z,2.33
2018-07-16T17:11:10.112Z,2.90
2018-07-16T17:13:38.635Z,2.60
2018-07-16T17:16:07.222Z,2.67
2018-07-16T17:18:35.753Z,2.33
2018-07-16T17:21:04.337Z,2.60
2018-07-16T17:23:32.863Z,2.30
2018-07-16T17:26:01.416Z,2.70
2018-07-16T17:28:29.935Z,2.83
2018-07-16T17:30:58.518Z,2.53
2018-07-16T17:33:27.026Z,2.60
2018-07-16T17:35:55.891Z,2.80
2018-07-16T17:38:24.651Z,2.63
2018-07-16T17:40:53.504Z,2.40
2018-07-16T17:43:22.268Z,2.80
2018-07-16T17:45:50.846Z,2.53
2018-07-16T17:48:19.397Z,2.50
2018-07-16T17:50:48.015Z,2.93
2018-07-16T17:53:16.635Z,3.70
2018-07-16T17:55:45.170Z,2.97
2018-07-16T17:58:13.771Z,2.83
2018-07-16T18:00:42.367Z,2.80
2018-07-16T18:03:10.921Z,3.30
2018-07-16T18:05:39.447Z,3.00
2018-07-16T18:08:08.060Z,3.17
2018-07-16T18:10:36.591Z,2.60
2018-07-16T18:13:05.258Z,2.80
2018-07-16T18:15:33.866Z,2.90
2018-07-16T18:18:02.425Z,2.80
2018-07-16T18:20:31.061Z,2.63
2018-07-16T18:22:59.619Z,2.90
2018-07-16T18:25:28.280Z,2.80
2018-07-16T18:27:56.866Z,2.83
2018-07-16T18:30:25.504Z,2.87
2018-07-16T18:32:54.084Z,3.10
2018-07-16T18:35:22.641Z,3.03
2018-07-16T18:37:51.204Z,3.37
2018-07-16T18:40:19.840Z,2.87
2018-07-16T18:42:48.386Z,2.63
2018-07-16T18:45:16.909Z,2.70
2018-07-16T18:47:45.553Z,2.33
2018-07-16T18:50:14.071Z,2.47
2018-07-16T18:52:42.629Z,2.50
2018-07-16T18:55:11.206Z,2.57
2018-07-16T18:57:39.884Z,2.77
2018-07-16T19:00:09.579Z,2.90
2018-07-16T19:02:38.171Z,2.73
2018-07-16T19:05:07.611Z,2.50
2018-07-16T19:07:36.279Z,2.83
2018-07-16T19:10:04.853Z,2.70
2018-07-16T19:12:33.536Z,2.47
2018-07-16T19:15:03.076Z,2.43
2018-07-16T19:17:31.298Z,2.40
2018-07-16T19:19:59.900Z,2.70
2018-07-16T19:22:28.564Z,2.70
2018-07-16T19:24:57.079Z,2.63
2018-07-16T19:27:25.656Z,3.03
2018-07-16T19:29:54.188Z,2.40
2018-07-16T19:32:22.823Z,3.07
2018-07-16T19:34:51.334Z,3.77
2018-07-16T19:37:19.941Z,3.00
2018-07-16T19:39:48.453Z,2.57
2018-07-16T19:42:17.009Z,2.83
2018-07-16T19:44:45.554Z,2.50
2018-07-16T19:47:14.059Z,3.00
2018-07-16T19:49:42.605Z,2.97
2018-07-16T19:52:11.154Z,2.97
2018-07-16T19:54:39.718Z,3.30
2018-07-16T19:57:08.297Z,2.90
2018-07-16T19:59:36.839Z,2.90
2018-07-16T20:02:05.404Z,2.77
2018-07-16T20:04:33.960Z,3.10
2018-07-16T20:07:02.490Z,2.83
2018-07-16T20:09:31.195Z,3.10
2018-07-16T20:11:59.669Z,3.10
2018-07-16T20:14:28.301Z,2.60
2018-07-16T20:16:56.930Z,2.80
2018-07-16T20:19:25.626Z,2.80
2018-07-16T20:21:54.151Z,3.00
2018-07-16T20:24:22.738Z,2.80
2018-07-16T20:26:51.280Z,2.90
2018-07-16T20:29:19.866Z,3.10
2018-07-16T20:31:48.438Z,2.90
2018-07-16T20:34:16.985Z,3.17
2018-07-16T20:36:45.517Z,3.37
2018-07-16T20:39:14.084Z,3.50
2018-07-16T20:41:42.630Z,3.80
2018-07-16T20:44:11.196Z,7.27
2018-07-16T20:46:39.762Z,10.50
2018-07-16T20:49:08.440Z,7.10
2018-07-16T20:51:36.976Z,5.80
2018-07-16T20:54:05.818Z,5.73
2018-07-16T20:56:34.374Z,7.03
2018-07-16T20:59:02.982Z,3.83
2018-07-16T21:01:31.520Z,3.57
2018-07-16T21:04:00.150Z,4.47
2018-07-16T21:06:28.685Z,4.17
2018-07-16T21:08:57.289Z,5.00
2018-07-16T21:11:25.824Z,4.97
2018-07-16T21:13:54.386Z,4.03
2018-07-16T21:16:22.906Z,4.83
2018-07-16T21:18:51.479Z,3.60
2018-07-16T21:21:20.126Z,3.10
2018-07-16T21:23:48.693Z,3.47
2018-07-16T21:26:17.203Z,2.80
2018-07-16T21:28:45.967Z,3.60
2018-07-16T21:31:14.509Z,3.80
2018-07-16T21:33:43.039Z,5.20
2018-07-16T21:36:11.586Z,8.90
2018-07-16T21:38:40.098Z,14.00
2018-07-16T21:41:08.671Z,14.70
2018-07-16T21:43:37.226Z,12.33
2018-07-16T21:46:06.634Z,11.77
2018-07-16T21:48:35.178Z,13.40
2018-07-16T21:51:03.758Z,13.70
2018-07-16T21:53:32.315Z,9.03
2018-07-16T21:56:00.932Z,8.17
2018-07-16T21:58:29.398Z,7.47
2018-07-16T22:00:58.003Z,7.20
2018-07-16T22:03:26.519Z,6.37
2018-07-16T22:05:55.053Z,6.27
2018-07-16T22:08:23.635Z,4.90
2018-07-16T22:10:52.181Z,4.70
2018-07-16T22:13:20.718Z,5.00
2018-07-16T22:15:49.255Z,4.60
2018-07-16T22:18:17.771Z,4.67
2018-07-16T22:20:46.352Z,14.47
2018-07-16T22:23:14.936Z,7.83
2018-07-16T22:25:43.579Z,4.70
2018-07-16T22:28:11.810Z,4.90
2018-07-16T22:30:40.458Z,5.50
2018-07-16T22:33:08.993Z,10.00
2018-07-16T22:35:37.544Z,8.53
2018-07-16T22:38:06.236Z,8.20
2018-07-16T22:40:34.782Z,5.43
2018-07-16T22:43:03.306Z,4.60
2018-07-16T22:45:31.841Z,3.93
2018-07-16T22:48:00.351Z,3.90
2018-07-16T22:50:28.909Z,3.23
2018-07-16T22:52:57.416Z,3.80
2018-07-16T22:55:26.078Z,3.97
2018-07-16T22:57:54.582Z,4.93
2018-07-16T23:00:23.135Z,5.07
2018-07-16T23:02:51.675Z,4.90
2018-07-16T23:05:20.253Z,5.40
2018-07-16T23:07:48.788Z,4.77
2018-07-16T23:10:17.346Z,5.30
2018-07-16T23:12:45.870Z,5.73
2018-07-16T23:15:14.422Z,4.90
2018-07-16T23:17:43.165Z,5.67
2018-07-16T23:20:11.732Z,4.97
2018-07-16T23:22:56.988Z,5.90
2018-07-16T23:25:25.556Z,5.90
2018-07-16T23:27:54.190Z,5.50
2018-07-16T23:30:22.741Z,5.10
2018-07-16T23:32:51.254Z,5.73
2018-07-16T23:35:19.789Z,5.63
2018-07-16T23:37:48.307Z,5.90
2018-07-16T23:40:16.835Z,4.83
2018-07-16T23:42:45.452Z,4.67
2018-07-16T23:45:13.985Z,4.57
2018-07-16T23:47:42.526Z,4.87
2018-07-16T23:50:11.058Z,4.80
2018-07-16T23:52:39.590Z,5.23
2018-07-16T23:55:08.122Z,4.33
2018-07-16T23:57:36.688Z,4.40
